Terminal Aerodrome Forecast
Issued by NWS

Home | Current Version | Previous Version | Text Only | Print | Product List | Glossary On
Versions: 1 2 3 4 5 6 7 8 9 10 11 12 13 14 15 16 17 18 19 20 21 22 23 24 25 26 27 28 29 30 31 32
000
FTUS41 KBUF 031414 AAA
TAFIAG
TAF AMD
KIAG 031414Z 0314/0412 27014KT P6SM VCSH BKN025
      TEMPO 0314/0317 -RA SCT025 BKN040
     FM031700 23012G22KT P6SM VCSH SCT025 BKN040
     FM032200 23012KT P6SM BKN060
     FM040200 23008KT P6SM SCT060
     FM040900 24004KT P6SM BKN040=

USA.gov is the U.S. government's official web portal to all federal, state and local government web resources and services.